Time;durP1;ratioP1;P1;durP2;ratioP2;P2;SDS_P1;SDS_P2;PMS_P1;PMS_P2;Temp;Humidity;BMP_temperature;BMP_pressure;BME280_temperature;BME280_humidity;BME280_pressure;Samples;Min_cycle;Max_cycle;Signal;HPM_P1;HPM_P2
2022/04/19 00:01:21;;;;;;;0.10;0.10;;;;;;;;;;4958955;28;20280;-90
2022/04/19 00:03:47;;;;;;;0.50;0.50;;;;;;;;;;4963599;28;20192;-91
2022/04/19 00:06:13;;;;;;;0.67;0.50;;;;;;;;;;4949944;29;20031;-90
2022/04/19 00:08:39;;;;;;;0.35;0.25;;;;;;;;;;4952543;28;20279;-90
2022/04/19 00:11:05;;;;;;;0.30;0.30;;;;;;;;;;4947806;28;20043;-90
2022/04/19 00:13:32;;;;;;;0.10;0.10;;;;;;;;;;4947369;29;20420;-89
2022/04/19 00:15:58;;;;;;;0.35;0.25;;;;;;;;;;4954707;28;20695;-90
2022/04/19 00:18:25;;;;;;;0.22;0.22;;;;;;;;;;4949864;29;20046;-89
2022/04/19 00:20:51;;;;;;;1.55;0.82;;;;;;;;;;4948853;28;20081;-91
2022/04/19 00:23:17;;;;;;;0.45;0.30;;;;;;;;;;4953618;28;20085;-90
2022/04/19 00:25:44;;;;;;;0.47;0.47;;;;;;;;;;4948425;28;20043;-89
2022/04/19 00:28:11;;;;;;;1.15;0.57;;;;;;;;;;4948928;28;20493;-90
2022/04/19 00:30:37;;;;;;;5.50;1.65;;;;;;;;;;4953008;28;20412;-91
2022/04/19 00:33:04;;;;;;;0.30;0.30;;;;;;;;;;4959896;28;20030;-91
2022/04/19 00:35:30;;;;;;;0.30;0.30;;;;;;;;;;4954032;28;20047;-90
2022/04/19 00:37:56;;;;;;;0.10;0.10;;;;;;;;;;4941009;28;20087;-92
2022/04/19 00:40:22;;;;;;;0.30;0.30;;;;;;;;;;4955153;28;20114;-91
2022/04/19 00:42:49;;;;;;;1.10;0.40;;;;;;;;;;4951143;28;20282;-90
2022/04/19 00:45:15;;;;;;;0.13;0.13;;;;;;;;;;4941143;28;20318;-91
2022/04/19 00:47:41;;;;;;;0.47;0.30;;;;;;;;;;4947136;28;20054;-92
2022/04/19 00:50:08;;;;;;;0.10;0.10;;;;;;;;;;4946982;28;20122;-90
2022/04/19 00:52:37;;;;;;;0.50;0.50;;;;;;;;;;4948390;28;20290;-93
2022/04/19 00:55:04;;;;;;;0.13;0.13;;;;;;;;;;4947931;29;20044;-87
2022/04/19 00:57:32;;;;;;;0.47;0.47;;;;;;;;;;4946890;29;20035;-90
2022/04/19 00:59:58;;;;;;;0.40;0.40;;;;;;;;;;4953815;28;20034;-91
2022/04/19 01:02:25;;;;;;;0.30;0.30;;;;;;;;;;4949182;28;20110;-91
2022/04/19 01:04:52;;;;;;;0.25;0.25;;;;;;;;;;4949214;28;20027;-91
2022/04/19 01:07:19;;;;;;;0.17;0.17;;;;;;;;;;4945067;28;20819;-89
2022/04/19 01:09:46;;;;;;;0.80;0.47;;;;;;;;;;4946336;28;20023;-92
2022/04/19 01:14:58;;;;;;;0.03;0.03;;;;;;;;;;4953529;28;20111;-90
2022/04/19 01:17:25;;;;;;;0.15;0.15;;;;;;;;;;4947995;28;20031;-89
2022/04/19 01:19:51;;;;;;;0.10;0.10;;;;;;;;;;4951301;28;20137;-89
2022/04/19 01:22:17;;;;;;;8.18;0.88;;;;;;;;;;4942936;28;20039;-88
2022/04/19 01:24:43;;;;;;;0.20;0.20;;;;;;;;;;4949540;28;20519;-88
2022/04/19 01:27:10;;;;;;;0.20;0.20;;;;;;;;;;4946800;28;20063;-90
2022/04/19 01:29:36;;;;;;;0.20;0.20;;;;;;;;;;4945793;28;20142;-89
2022/04/19 01:32:03;;;;;;;0.28;0.28;;;;;;;;;;4947508;28;20067;-88
2022/04/19 01:34:30;;;;;;;0.32;0.32;;;;;;;;;;4940557;28;20046;-88
2022/04/19 01:36:56;;;;;;;0.23;0.20;;;;;;;;;;4943750;28;20027;-89
2022/04/19 01:40:16;;;;;;;0.10;0.10;;;;;;;;;;4944566;28;20035;-90
2022/04/19 01:42:09;;;;;;;0.13;0.13;;;;;;;;;;4948959;28;20291;-90
2022/04/19 01:44:35;;;;;;;0.10;0.10;;;;;;;;;;4942524;28;20027;-88
2022/04/19 01:47:02;;;;;;;0.20;0.20;;;;;;;;;;4942619;28;20050;-87
2022/04/19 01:49:28;;;;;;;0.17;0.17;;;;;;;;;;4941677;28;20037;-89
2022/04/19 01:51:54;;;;;;;0.30;0.30;;;;;;;;;;4946089;28;20035;-88
2022/04/19 01:54:20;;;;;;;1.17;0.73;;;;;;;;;;4944864;28;20058;-88
2022/04/19 01:56:48;;;;;;;0.10;0.10;;;;;;;;;;4952522;28;20065;-88
2022/04/19 01:59:14;;;;;;;0.32;0.32;;;;;;;;;;4944123;28;20031;-88
2022/04/19 02:01:41;;;;;;;0.30;0.30;;;;;;;;;;4945711;28;20035;-88
2022/04/19 02:04:08;;;;;;;0.28;0.28;;;;;;;;;;4941992;28;20039;-86
2022/04/19 02:06:34;;;;;;;0.57;0.57;;;;;;;;;;4941649;29;20492;-87
2022/04/19 02:09:03;;;;;;;0.87;0.57;;;;;;;;;;4948213;28;20937;-87
2022/04/19 02:11:29;;;;;;;0.22;0.22;;;;;;;;;;4941360;28;20058;-88
2022/04/19 02:13:55;;;;;;;0.10;0.10;;;;;;;;;;4942265;28;20621;-88
2022/04/19 02:16:21;;;;;;;0.43;0.43;;;;;;;;;;4944560;28;20278;-88
2022/04/19 02:18:50;;;;;;;0.43;0.43;;;;;;;;;;4942447;28;20070;-88
2022/04/19 02:21:16;;;;;;;0.10;0.10;;;;;;;;;;4941632;28;20028;-87
2022/04/19 02:23:42;;;;;;;0.10;0.10;;;;;;;;;;4947111;28;20030;-89
2022/04/19 02:26:08;;;;;;;0.20;0.20;;;;;;;;;;4944450;28;20062;-88
2022/04/19 02:28:34;;;;;;;0.20;0.20;;;;;;;;;;4943016;28;20039;-87
2022/04/19 02:31:00;;;;;;;0.20;0.20;;;;;;;;;;4941945;29;20039;-89
2022/04/19 02:33:26;;;;;;;0.60;0.60;;;;;;;;;;4949772;28;21090;-90
2022/04/19 02:35:55;;;;;;;0.00;0.00;;;;;;;;;;4947657;28;20067;-89
2022/04/19 02:38:22;;;;;;;0.30;0.30;;;;;;;;;;4941766;28;20031;-87
2022/04/19 02:40:48;;;;;;;0.30;0.30;;;;;;;;;;4937996;28;20036;-87
2022/04/19 02:43:14;;;;;;;0.20;0.20;;;;;;;;;;4940381;28;20031;-87
2022/04/19 02:45:41;;;;;;;0.43;0.43;;;;;;;;;;4944741;28;20514;-88
2022/04/19 02:48:07;;;;;;;;;;;;;;;;;;4946348;28;20058;-87
2022/04/19 02:50:33;;;;;;;0.40;0.40;;;;;;;;;;4943517;28;20722;-87
2022/04/19 02:53:00;;;;;;;0.25;0.25;;;;;;;;;;4947097;28;20030;-93
2022/04/19 02:55:27;;;;;;;;;;;;;;;;;;4947558;28;20039;-88
2022/04/19 02:57:53;;;;;;;;;;;;;;;;;;4943883;28;20008;-88
2022/04/19 03:00:20;;;;;;;0.93;0.88;;;;;;;;;;4942701;29;20403;-89
2022/04/19 03:02:49;;;;;;;0.17;0.17;;;;;;;;;;4943891;28;20035;-89
2022/04/19 03:05:16;;;;;;;0.30;0.30;;;;;;;;;;4948167;28;20031;-88
2022/04/19 03:07:42;;;;;;;0.45;0.45;;;;;;;;;;4942622;28;20132;-86
2022/04/19 03:10:08;;;;;;;1.80;0.87;;;;;;;;;;4944629;28;20027;-88
2022/04/19 03:12:34;;;;;;;0.30;0.30;;;;;;;;;;4946166;28;20134;-88
2022/04/19 03:15:00;;;;;;;0.10;0.10;;;;;;;;;;4940945;28;20081;-88
2022/04/19 03:17:27;;;;;;;0.20;0.20;;;;;;;;;;4942348;29;20034;-88
2022/04/19 03:19:53;;;;;;;0.22;0.22;;;;;;;;;;4946309;28;20299;-88
2022/04/19 03:22:19;;;;;;;0.10;0.10;;;;;;;;;;4943881;28;20035;-88
2022/04/19 03:27:42;;;;;;;0.10;0.10;;;;;;;;;;4947249;29;20482;-90
2022/04/19 03:30:14;;;;;;;0.10;0.10;;;;;;;;;;4949184;28;20031;-89
2022/04/19 03:32:43;;;;;;;0.40;0.40;;;;;;;;;;4942673;29;20027;-88
2022/04/19 03:35:10;;;;;;;0.45;0.35;;;;;;;;;;4948244;28;20049;-90
2022/04/19 03:37:37;;;;;;;0.17;0.17;;;;;;;;;;4950643;28;20043;-91
2022/04/19 03:40:04;;;;;;;0.28;0.28;;;;;;;;;;4949770;28;20568;-88
2022/04/19 03:42:30;;;;;;;0.47;0.47;;;;;;;;;;4946795;28;20034;-91
2022/04/19 03:44:56;;;;;;;0.50;0.30;;;;;;;;;;4947363;28;20039;-92
2022/04/19 03:47:22;;;;;;;0.10;0.10;;;;;;;;;;4950590;28;20024;-91
2022/04/19 03:49:48;;;;;;;0.20;0.20;;;;;;;;;;4950677;28;20035;-92
2022/04/19 03:52:15;;;;;;;0.43;0.43;;;;;;;;;;4954683;28;21184;-91
2022/04/19 03:54:41;;;;;;;1.00;0.43;;;;;;;;;;4953399;28;20041;-92
2022/04/19 03:57:08;;;;;;;0.60;0.57;;;;;;;;;;4950964;28;20034;-92
2022/04/19 03:59:38;;;;;;;0.68;0.40;;;;;;;;;;4949251;28;20089;-89
2022/04/19 04:02:04;;;;;;;0.10;0.10;;;;;;;;;;4949609;28;20118;-91
2022/04/19 04:04:31;;;;;;;0.35;0.35;;;;;;;;;;4952368;28;20039;-90
2022/04/19 04:07:00;;;;;;;0.30;0.30;;;;;;;;;;4951788;28;20039;-92
2022/04/19 04:09:35;;;;;;;0.35;0.35;;;;;;;;;;4949379;28;20031;-90
2022/04/19 04:12:05;;;;;;;0.55;0.55;;;;;;;;;;4949332;28;20095;-90
2022/04/19 04:14:31;;;;;;;0.05;0.05;;;;;;;;;;4947373;28;20043;-90
2022/04/19 04:16:58;;;;;;;0.25;0.25;;;;;;;;;;4946071;29;20496;-90
2022/04/19 04:19:24;;;;;;;0.13;0.13;;;;;;;;;;4949213;28;20145;-91
2022/04/19 04:21:50;;;;;;;0.28;0.28;;;;;;;;;;4949395;28;20041;-90
2022/04/19 04:24:16;;;;;;;0.47;0.47;;;;;;;;;;4949062;28;20035;-88
2022/04/19 04:26:42;;;;;;;0.27;0.27;;;;;;;;;;4956171;28;20465;-90
2022/04/19 04:29:08;;;;;;;0.00;0.00;;;;;;;;;;4950901;28;20031;-90
2022/04/19 04:31:34;;;;;;;0.10;0.10;;;;;;;;;;4953410;28;20039;-90
2022/04/19 04:34:00;;;;;;;0.20;0.20;;;;;;;;;;4948037;29;20070;-92
2022/04/19 04:36:26;;;;;;;0.00;0.00;;;;;;;;;;4939856;28;20054;-91
2022/04/19 04:38:52;;;;;;;25.20;1.20;;;;;;;;;;4949426;28;20027;-89
2022/04/19 04:41:18;;;;;;;0.47;0.47;;;;;;;;;;4947401;28;20038;-90
2022/04/19 04:43:44;;;;;;;0.73;0.57;;;;;;;;;;4942068;29;20035;-87
2022/04/19 04:51:40;;;;;;;0.80;0.73;;;;;;;;;;4952210;29;20114;-94
2022/04/19 04:54:06;;;;;;;0.10;0.10;;;;;;;;;;4956207;28;20134;-89
2022/04/19 04:56:32;;;;;;;0.00;0.00;;;;;;;;;;4944518;28;20027;-90
2022/04/19 04:58:58;;;;;;;1.65;1.05;;;;;;;;;;4954973;28;20027;-89
2022/04/19 05:01:24;;;;;;;0.10;0.10;;;;;;;;;;4964898;28;20058;-88
2022/04/19 05:03:50;;;;;;;0.08;0.08;;;;;;;;;;4951303;28;20019;-89
2022/04/19 05:06:16;;;;;;;0.25;0.25;;;;;;;;;;4948428;28;20066;-87
2022/04/19 05:08:42;;;;;;;0.15;0.15;;;;;;;;;;4957186;28;20097;-90
2022/04/19 05:11:08;;;;;;;0.32;0.32;;;;;;;;;;4953090;28;20505;-91
2022/04/19 05:13:34;;;;;;;0.98;0.28;;;;;;;;;;4931757;29;20063;-91
2022/04/19 05:16:01;;;;;;;0.32;0.32;;;;;;;;;;4962676;28;20046;-90
2022/04/19 05:18:27;;;;;;;0.10;0.10;;;;;;;;;;4961489;28;20424;-89
2022/04/19 05:20:54;;;;;;;0.00;0.00;;;;;;;;;;4955337;28;20719;-89
2022/04/19 05:23:20;;;;;;;0.57;0.57;;;;;;;;;;4948571;29;20604;-90
2022/04/19 05:25:46;;;;;;;0.73;0.28;;;;;;;;;;4955018;28;20030;-90
2022/04/19 05:28:23;;;;;;;1.20;1.00;;;;;;;;;;4971180;28;20043;-94
2022/04/19 05:30:49;;;;;;;0.50;0.50;;;;;;;;;;4950372;28;20063;-94
2022/04/19 05:33:15;;;;;;;0.30;0.30;;;;;;;;;;4950304;28;20042;-86
2022/04/19 05:35:41;;;;;;;0.30;0.30;;;;;;;;;;4957392;28;20054;-90
2022/04/19 05:38:08;;;;;;;0.17;0.17;;;;;;;;;;4962617;28;20047;-92
2022/04/19 05:40:34;;;;;;;0.13;0.13;;;;;;;;;;4952346;29;20122;-92
2022/04/19 05:43:01;;;;;;;0.60;0.45;;;;;;;;;;4953994;29;20587;-91
2022/04/19 05:45:28;;;;;;;0.10;0.10;;;;;;;;;;4965949;28;20022;-91
2022/04/19 05:47:54;;;;;;;0.20;0.20;;;;;;;;;;4948773;28;20043;-93
2022/04/19 05:50:20;;;;;;;1.60;0.40;;;;;;;;;;4954081;28;20058;-91
2022/04/19 05:52:46;;;;;;;2.17;0.73;;;;;;;;;;4958240;28;20062;-90
2022/04/19 05:55:12;;;;;;;0.60;0.60;;;;;;;;;;4963030;28;20050;-90
2022/04/19 05:57:38;;;;;;;0.40;0.40;;;;;;;;;;4950364;28;20279;-91
2022/04/19 06:00:04;;;;;;;0.33;0.33;;;;;;;;;;4947085;29;20027;-89
2022/04/19 06:05:15;;;;;;;0.45;0.45;;;;;;;;;;4941821;29;20050;-88
2022/04/19 06:07:45;;;;;;;0.10;0.10;;;;;;;;;;4937692;29;20236;-89
2022/04/19 06:10:11;;;;;;;0.20;0.20;;;;;;;;;;4942946;28;20296;-90
2022/04/19 06:12:38;;;;;;;0.00;0.00;;;;;;;;;;4951795;28;20034;-93
2022/04/19 06:15:04;;;;;;;;;;;;;;;;;;4954554;29;20051;-93
2022/04/19 06:17:32;;;;;;;0.10;0.10;;;;;;;;;;4953375;28;20268;-94
2022/04/19 06:20:01;;;;;;;1.48;1.00;;;;;;;;;;4948366;28;20059;-91
2022/04/19 06:22:31;;;;;;;0.20;0.20;;;;;;;;;;4947557;28;20062;-93
2022/04/19 06:24:57;;;;;;;0.10;0.10;;;;;;;;;;4955017;28;20420;-93
2022/04/19 06:27:24;;;;;;;0.30;0.30;;;;;;;;;;4950292;29;20047;-94
2022/04/19 06:29:53;;;;;;;0.00;0.00;;;;;;;;;;4947861;29;20071;-93
2022/04/19 06:32:22;;;;;;;0.10;0.10;;;;;;;;;;4948251;29;20059;-96
2022/04/19 06:34:53;;;;;;;1.17;0.40;;;;;;;;;;4952933;28;20067;-92
2022/04/19 06:37:20;;;;;;;0.43;0.43;;;;;;;;;;4935158;29;20031;-92
2022/04/19 06:39:46;;;;;;;0.20;0.20;;;;;;;;;;4931791;29;20433;-92
2022/04/19 06:42:13;;;;;;;0.15;0.15;;;;;;;;;;4950640;28;20793;-89
2022/04/19 06:44:39;;;;;;;;;;;;;;;;;;4950343;28;20067;-88
2022/04/19 06:47:06;;;;;;;0.00;0.00;;;;;;;;;;4946721;28;19946;-87
2022/04/19 06:49:32;;;;;;;;;;;;;;;;;;4941627;28;20054;-88
2022/04/19 06:51:58;;;;;;;0.20;0.20;;;;;;;;;;4948756;28;19914;-90
2022/04/19 06:54:24;;;;;;;0.65;0.22;;;;;;;;;;4948595;28;20039;-92
2022/04/19 06:56:50;;;;;;;0.43;0.35;;;;;;;;;;4953867;28;20400;-90
2022/04/19 06:59:16;;;;;;;0.00;0.00;;;;;;;;;;4950782;28;20550;-92
2022/04/19 07:01:43;;;;;;;0.17;0.17;;;;;;;;;;4956282;28;20054;-91
2022/04/19 07:04:10;;;;;;;13.90;0.65;;;;;;;;;;4956225;28;20035;-90
2022/04/19 07:06:35;;;;;;;;;;;;;;;;;;4956378;28;20047;-89
2022/04/19 07:09:02;;;;;;;2.80;0.47;;;;;;;;;;4935778;29;19911;-91
2022/04/19 07:11:28;;;;;;;0.47;0.30;;;;;;;;;;4948265;28;20067;-90
2022/04/19 07:13:55;;;;;;;2.55;1.90;;;;;;;;;;4953074;28;20073;-90
2022/04/19 07:16:21;;;;;;;0.10;0.10;;;;;;;;;;4948914;28;20170;-89
2022/04/19 07:18:47;;;;;;;0.30;0.30;;;;;;;;;;4961682;28;20146;-90
2022/04/19 07:26:44;;;;;;;0.93;0.93;;;;;;;;;;4957137;28;20041;-89
2022/04/19 07:29:11;;;;;;;0.30;0.25;;;;;;;;;;4955459;28;20031;-90
2022/04/19 07:31:41;;;;;;;6.13;1.75;;;;;;;;;;4964399;28;20774;-90
2022/04/19 07:34:07;;;;;;;2.63;1.55;;;;;;;;;;4948355;28;20066;-90
2022/04/19 07:36:40;;;;;;;1.83;1.02;;;;;;;;;;4948362;29;20149;-90
2022/04/19 07:39:10;;;;;;;0.22;0.22;;;;;;;;;;4950299;29;20587;-90
2022/04/19 07:41:37;;;;;;;2.58;0.82;;;;;;;;;;4946779;29;20027;-90
2022/04/19 07:44:04;;;;;;;0.28;0.28;;;;;;;;;;4950080;28;20113;-90
2022/04/19 07:46:31;;;;;;;1.88;0.82;;;;;;;;;;4948395;29;20035;-91
2022/04/19 07:48:57;;;;;;;0.75;0.55;;;;;;;;;;4948568;29;20064;-91
2022/04/19 07:51:23;;;;;;;0.38;0.05;;;;;;;;;;4950678;28;20031;-91
2022/04/19 07:53:49;;;;;;;0.75;0.57;;;;;;;;;;4949551;29;20057;-91
2022/04/19 07:56:15;;;;;;;0.00;0.00;;;;;;;;;;4948456;29;20051;-91
2022/04/19 07:58:43;;;;;;;1.63;1.15;;;;;;;;;;4951773;29;20564;-91
2022/04/19 08:01:11;;;;;;;0.30;0.30;;;;;;;;;;4952794;28;20086;-91
2022/04/19 08:03:37;;;;;;;0.15;0.15;;;;;;;;;;4952739;28;20057;-91
2022/04/19 08:06:03;;;;;;;0.20;0.20;;;;;;;;;;4951092;29;20086;-92
2022/04/19 08:08:30;;;;;;;0.63;0.60;;;;;;;;;;4950378;29;20079;-93
2022/04/19 08:10:56;;;;;;;4.10;0.52;;;;;;;;;;4947564;29;20063;-91
2022/04/19 08:13:22;;;;;;;0.65;0.65;;;;;;;;;;4933558;29;20024;-90
2022/04/19 08:15:48;;;;;;;0.30;0.25;;;;;;;;;;4946751;29;20047;-91
2022/04/19 08:18:14;;;;;;;0.20;0.20;;;;;;;;;;4949709;29;20043;-92
2022/04/19 08:20:43;;;;;;;0.30;0.30;;;;;;;;;;4949512;29;20346;-91
2022/04/19 08:23:10;;;;;;;0.47;0.47;;;;;;;;;;4949171;29;20042;-90
2022/04/19 08:25:36;;;;;;;;;;;;;;;;;;4946065;28;20023;-90
2022/04/19 08:28:02;;;;;;;0.43;0.43;;;;;;;;;;4934087;29;19915;-91
2022/04/19 08:30:28;;;;;;;0.30;0.30;;;;;;;;;;4948960;29;20599;-92
2022/04/19 08:32:54;;;;;;;0.30;0.30;;;;;;;;;;4950635;29;20031;-91
2022/04/19 08:35:20;;;;;;;0.47;0.47;;;;;;;;;;4949505;29;20050;-90
2022/04/19 08:37:46;;;;;;;3.83;0.55;;;;;;;;;;4945860;28;20485;-90
2022/04/19 08:40:13;;;;;;;0.32;0.28;;;;;;;;;;4934615;28;20067;-91
2022/04/19 08:42:40;;;;;;;0.20;0.20;;;;;;;;;;4950730;28;20035;-91
2022/04/19 08:45:07;;;;;;;2.10;0.80;;;;;;;;;;4946250;29;20039;-89
2022/04/19 08:47:44;;;;;;;0.55;0.55;;;;;;;;;;4945857;29;20470;-91
2022/04/19 08:50:14;;;;;;;0.30;0.30;;;;;;;;;;4944220;29;20047;-91
2022/04/19 08:52:40;;;;;;;0.38;0.38;;;;;;;;;;4945411;29;20039;-89
2022/04/19 08:57:51;;;;;;;0.22;0.22;;;;;;;;;;4949208;29;19917;-89
2022/04/19 09:00:22;;;;;;;;;;;;;;;;;;4949028;29;20031;-90
2022/04/19 09:02:48;;;;;;;0.28;0.28;;;;;;;;;;4947121;29;19942;-91
2022/04/19 09:05:14;;;;;;;;;;;;;;;;;;4947284;29;20849;-90
2022/04/19 09:07:40;;;;;;;2.10;1.05;;;;;;;;;;4962153;28;20052;-88
2022/04/19 09:10:07;;;;;;;0.57;0.50;;;;;;;;;;4947297;29;20020;-91
2022/04/19 09:12:34;;;;;;;2.90;1.08;;;;;;;;;;4946009;29;20041;-91
2022/04/19 09:15:03;;;;;;;0.25;0.25;;;;;;;;;;4947036;29;20039;-89
2022/04/19 09:17:48;;;;;;;0.40;0.40;;;;;;;;;;4946326;28;20027;-91
2022/04/19 09:20:15;;;;;;;0.32;0.32;;;;;;;;;;4946547;29;20079;-88
2022/04/19 09:22:44;;;;;;;0.20;0.20;;;;;;;;;;4946005;28;20039;-90
2022/04/19 09:25:18;;;;;;;0.10;0.10;;;;;;;;;;4945754;29;20934;-89
2022/04/19 09:27:44;;;;;;;0.47;0.47;;;;;;;;;;4948986;28;20062;-91
2022/04/19 09:30:18;;;;;;;0.20;0.20;;;;;;;;;;4949803;29;20069;-91
2022/04/19 09:33:04;;;;;;;0.20;0.20;;;;;;;;;;4949148;29;20838;-92
2022/04/19 09:35:30;;;;;;;0.85;0.80;;;;;;;;;;4947034;28;20536;-92
2022/04/19 09:37:56;;;;;;;3.10;0.30;;;;;;;;;;4949411;29;20082;-90
2022/04/19 09:40:28;;;;;;;0.43;0.40;;;;;;;;;;4946551;29;20039;-90
2022/04/19 09:42:55;;;;;;;0.30;0.30;;;;;;;;;;4947569;28;20031;-91
2022/04/19 09:45:21;;;;;;;1.25;0.80;;;;;;;;;;4945283;28;20042;-90
2022/04/19 09:47:51;;;;;;;0.60;0.38;;;;;;;;;;4945296;29;20607;-90
2022/04/19 09:50:17;;;;;;;0.28;0.25;;;;;;;;;;4947115;29;20046;-90
2022/04/19 09:52:50;;;;;;;0.43;0.43;;;;;;;;;;4948122;29;20035;-91
2022/04/19 09:55:17;;;;;;;1.10;0.32;;;;;;;;;;4948395;29;20050;-92
2022/04/19 09:57:47;;;;;;;0.00;0.00;;;;;;;;;;4951744;29;20058;-93
2022/04/19 10:00:17;;;;;;;0.10;0.10;;;;;;;;;;4949661;28;20114;-94
2022/04/19 10:08:18;;;;;;;1.15;0.85;;;;;;;;;;4951505;29;20067;-93
2022/04/19 10:10:45;;;;;;;0.20;0.20;;;;;;;;;;4951955;28;20035;-94
2022/04/19 10:13:13;;;;;;;0.32;0.32;;;;;;;;;;4950701;29;20515;-94
2022/04/19 10:15:42;;;;;;;0.20;0.20;;;;;;;;;;4951041;28;20135;-94
2022/04/19 10:18:08;;;;;;;0.35;0.25;;;;;;;;;;4947286;28;20051;-93
2022/04/19 10:20:40;;;;;;;0.20;0.20;;;;;;;;;;4943522;29;20126;-92
2022/04/19 10:23:22;;;;;;;0.10;0.10;;;;;;;;;;4959779;29;20028;-96
2022/04/19 10:25:49;;;;;;;0.25;0.10;;;;;;;;;;4959351;29;20054;-95
2022/04/19 10:28:27;;;;;;;0.28;0.28;;;;;;;;;;4963169;29;20094;-94
2022/04/19 10:30:56;;;;;;;0.10;0.10;;;;;;;;;;4957825;28;20095;-96
2022/04/19 10:33:39;;;;;;;0.47;0.40;;;;;;;;;;4950721;28;20124;-95
2022/04/19 10:36:24;;;;;;;0.00;0.00;;;;;;;;;;4953503;28;20046;-95
2022/04/19 10:39:08;;;;;;;0.30;0.28;;;;;;;;;;4964737;28;20039;-93
2022/04/19 10:41:52;;;;;;;1.35;0.38;;;;;;;;;;4955850;28;20529;-92
2022/04/19 10:44:30;;;;;;;0.13;0.13;;;;;;;;;;4958884;28;20050;-92
2022/04/19 10:47:08;;;;;;;0.30;0.30;;;;;;;;;;4959473;29;20047;-93
2022/04/19 10:50:00;;;;;;;0.43;0.43;;;;;;;;;;4957306;29;20122;-95
2022/04/19 10:52:39;;;;;;;0.60;0.60;;;;;;;;;;4954296;28;20040;-92
2022/04/19 10:55:06;;;;;;;0.47;0.47;;;;;;;;;;4952452;28;20130;-91
2022/04/19 11:00:29;;;;;;;4.57;0.52;;;;;;;;;;4952005;29;20078;-92
2022/04/19 11:03:00;;;;;;;0.68;0.35;;;;;;;;;;4953091;29;20125;-90
2022/04/19 11:05:41;;;;;;;1.27;0.70;;;;;;;;;;4951783;29;20441;-93
2022/04/19 11:08:19;;;;;;;3.47;0.88;;;;;;;;;;4949562;28;20030;-91
2022/04/19 11:10:45;;;;;;;1.10;0.90;;;;;;;;;;4948204;28;20031;-90
2022/04/19 11:13:14;;;;;;;0.65;0.65;;;;;;;;;;4940466;29;20027;-93
2022/04/19 11:15:42;;;;;;;0.30;0.30;;;;;;;;;;4953755;28;20066;-91
2022/04/19 11:18:24;;;;;;;0.50;0.50;;;;;;;;;;4954283;28;20059;-92
2022/04/19 11:20:51;;;;;;;0.65;0.30;;;;;;;;;;4946910;28;20046;-92
2022/04/19 11:23:18;;;;;;;0.40;0.40;;;;;;;;;;4961685;28;20027;-93
2022/04/19 11:25:45;;;;;;;;;;;;;;;;;;4954697;28;20114;-91
2022/04/19 11:28:11;;;;;;;1.05;0.40;;;;;;;;;;4949281;28;19970;-91
2022/04/19 11:31:03;;;;;;;0.20;0.20;;;;;;;;;;4950252;29;20023;-90
2022/04/19 11:33:33;;;;;;;0.35;0.35;;;;;;;;;;4948828;29;20615;-90
2022/04/19 11:36:03;;;;;;;0.60;0.60;;;;;;;;;;4951372;29;20153;-90
2022/04/19 11:38:30;;;;;;;0.43;0.40;;;;;;;;;;4950610;28;20035;-91
2022/04/19 11:46:44;;;;;;;1.55;0.88;;;;;;;;;;4950546;28;20406;-94
2022/04/19 11:49:30;;;;;;;0.52;0.52;;;;;;;;;;4952430;28;20090;-93
2022/04/19 11:52:01;;;;;;;0.35;0.35;;;;;;;;;;4953466;29;20082;-92
2022/04/19 11:54:28;;;;;;;0.60;0.50;;;;;;;;;;4952373;29;20060;-92
2022/04/19 11:56:55;;;;;;;0.03;0.03;;;;;;;;;;4950793;28;20815;-92
2022/04/19 11:59:31;;;;;;;0.60;0.60;;;;;;;;;;4945314;28;20069;-92
2022/04/19 12:01:57;;;;;;;0.40;0.40;;;;;;;;;;4953039;29;20046;-91
2022/04/19 12:04:24;;;;;;;1.13;1.02;;;;;;;;;;4953704;29;20715;-93
2022/04/19 12:06:54;;;;;;;0.10;0.10;;;;;;;;;;4954841;28;20031;-93
2022/04/19 12:09:20;;;;;;;7.97;0.73;;;;;;;;;;4948003;29;20039;-94
2022/04/19 12:11:47;;;;;;;0.30;0.30;;;;;;;;;;4945856;29;20057;-93
2022/04/19 12:14:27;;;;;;;1.48;0.57;;;;;;;;;;4947479;29;20563;-93
2022/04/19 12:16:58;;;;;;;0.68;0.60;;;;;;;;;;4952729;29;20019;-93
2022/04/19 12:19:34;;;;;;;0.13;0.13;;;;;;;;;;4935171;29;20078;-93
2022/04/19 12:22:00;;;;;;;0.77;0.77;;;;;;;;;;4951477;29;20031;-93
2022/04/19 12:24:28;;;;;;;0.20;0.20;;;;;;;;;;4953844;28;20055;-94
2022/04/19 12:27:06;;;;;;;0.43;0.30;;;;;;;;;;4955200;28;20500;-94
2022/04/19 12:29:33;;;;;;;1.05;0.80;;;;;;;;;;4953514;29;20029;-92
2022/04/19 12:32:00;;;;;;;;;;;;;;;;;;4953581;29;20027;-94
2022/04/19 12:34:33;;;;;;;0.63;0.57;;;;;;;;;;4955167;28;19925;-92
2022/04/19 12:37:05;;;;;;;0.43;0.35;;;;;;;;;;4951233;29;20035;-92
2022/04/19 12:39:31;;;;;;;1.00;0.52;;;;;;;;;;4951650;29;20024;-93
2022/04/19 12:42:04;;;;;;;0.38;0.20;;;;;;;;;;4950410;29;20038;-92
2022/04/19 12:44:30;;;;;;;6.68;0.40;;;;;;;;;;4950397;29;20046;-93
2022/04/19 12:46:57;;;;;;;0.10;0.10;;;;;;;;;;4953451;29;20078;-92
2022/04/19 12:49:32;;;;;;;0.45;0.45;;;;;;;;;;4951088;28;20035;-94
2022/04/19 12:51:58;;;;;;;0.00;0.00;;;;;;;;;;4935375;29;20422;-92
2022/04/19 12:54:28;;;;;;;0.30;0.30;;;;;;;;;;4947952;28;20047;-92
2022/04/19 12:57:14;;;;;;;0.08;0.08;;;;;;;;;;4938653;29;20115;-93
2022/04/19 12:59:43;;;;;;;0.15;0.15;;;;;;;;;;4951183;29;20066;-92
2022/04/19 13:02:09;;;;;;;0.20;0.20;;;;;;;;;;4948889;29;20041;-93
2022/04/19 13:04:35;;;;;;;0.05;0.05;;;;;;;;;;4948068;29;20038;-92
2022/04/19 13:12:31;;;;;;;1.13;0.55;;;;;;;;;;4946181;29;20412;-94
2022/04/19 13:14:58;;;;;;;1.40;0.63;;;;;;;;;;4954021;28;20039;-91
2022/04/19 13:17:25;;;;;;;0.32;0.32;;;;;;;;;;4942028;29;20043;-92
2022/04/19 13:19:51;;;;;;;0.22;0.22;;;;;;;;;;4940610;29;20846;-91
2022/04/19 13:22:18;;;;;;;0.00;0.00;;;;;;;;;;4949969;28;20035;-92
2022/04/19 13:24:44;;;;;;;0.88;0.68;;;;;;;;;;4954748;28;20699;-95
2022/04/19 13:27:11;;;;;;;0.20;0.20;;;;;;;;;;4946441;28;20027;-95
2022/04/19 13:29:41;;;;;;;0.15;0.15;;;;;;;;;;4946473;29;20055;-94
2022/04/19 13:32:08;;;;;;;0.00;0.00;;;;;;;;;;4946080;29;20417;-94
2022/04/19 13:34:34;;;;;;;0.20;0.20;;;;;;;;;;4936571;29;20115;-95
2022/04/19 13:37:01;;;;;;;0.22;0.22;;;;;;;;;;4938227;29;20111;-94
2022/04/19 13:39:27;;;;;;;0.20;0.20;;;;;;;;;;4956363;28;20028;-94
2022/04/19 13:41:54;;;;;;;0.10;0.10;;;;;;;;;;4956354;29;20035;-94
2022/04/19 13:44:21;;;;;;;0.10;0.10;;;;;;;;;;4955699;28;20039;-94
2022/04/19 13:46:48;;;;;;;0.20;0.10;;;;;;;;;;4949574;28;20043;-94
2022/04/19 13:49:15;;;;;;;1.73;0.45;;;;;;;;;;4936333;29;20040;-92
2022/04/19 13:51:42;;;;;;;;;;;;;;;;;;4937588;29;20103;-94
2022/04/19 13:54:10;;;;;;;0.40;0.10;;;;;;;;;;4953856;29;19950;-94
2022/04/19 13:56:37;;;;;;;0.30;0.30;;;;;;;;;;4954562;29;20430;-94
2022/04/19 13:59:04;;;;;;;0.80;0.52;;;;;;;;;;4955326;28;20539;-93
2022/04/19 14:01:31;;;;;;;0.15;0.15;;;;;;;;;;4952321;28;20038;-94
2022/04/19 14:03:57;;;;;;;0.15;0.15;;;;;;;;;;4952475;28;20031;-93
2022/04/19 14:06:23;;;;;;;0.20;0.20;;;;;;;;;;4952906;28;20031;-92
2022/04/19 14:08:49;;;;;;;6.68;1.05;;;;;;;;;;4946317;28;20039;-90
2022/04/19 14:11:15;;;;;;;0.30;0.30;;;;;;;;;;4952236;28;20030;-92
2022/04/19 14:13:42;;;;;;;0.13;0.10;;;;;;;;;;4936784;29;20118;-91
2022/04/19 14:16:12;;;;;;;0.63;0.03;;;;;;;;;;4941665;28;20070;-93
2022/04/19 14:18:38;;;;;;;0.00;0.00;;;;;;;;;;4938109;28;20055;-93
2022/04/19 14:21:05;;;;;;;1.75;0.38;;;;;;;;;;4951609;28;20042;-90
2022/04/19 14:23:32;;;;;;;0.00;0.00;;;;;;;;;;4945309;28;20032;-95
2022/04/19 14:25:59;;;;;;;0.25;0.13;;;;;;;;;;4949376;28;20030;-94
2022/04/19 14:33:15;;;;;;;0.08;0.08;;;;;;;;;;4951458;28;20030;-94
2022/04/19 14:33:56;;;;;;;0.13;0.13;;;;;;;;;;4932738;29;19918;-91
2022/04/19 14:36:25;;;;;;;0.10;0.10;;;;;;;;;;4952055;28;20043;-93
2022/04/19 14:38:52;;;;;;;0.10;0.10;;;;;;;;;;4949655;28;20089;-90
2022/04/19 14:41:19;;;;;;;0.00;0.00;;;;;;;;;;4946294;28;20031;-90
2022/04/19 14:43:46;;;;;;;0.35;0.25;;;;;;;;;;4953426;28;20050;-91
2022/04/19 14:46:12;;;;;;;0.20;0.20;;;;;;;;;;4949466;28;20070;-92
2022/04/19 14:48:38;;;;;;;0.15;0.15;;;;;;;;;;4944357;28;20429;-92
2022/04/19 14:53:49;;;;;;;0.00;0.00;;;;;;;;;;4949350;28;20049;-92
2022/04/19 14:56:15;;;;;;;0.40;0.40;;;;;;;;;;4949999;28;20393;-90
2022/04/19 14:58:42;;;;;;;0.20;0.20;;;;;;;;;;4947989;28;20488;-92
2022/04/19 15:01:09;;;;;;;0.00;0.00;;;;;;;;;;4947402;28;20114;-92
2022/04/19 15:03:35;;;;;;;0.30;0.30;;;;;;;;;;4947673;28;20135;-92
2022/04/19 15:06:01;;;;;;;0.45;0.20;;;;;;;;;;4950000;28;20036;-92
2022/04/19 15:08:28;;;;;;;0.15;0.15;;;;;;;;;;4942576;28;20042;-92
2022/04/19 15:10:54;;;;;;;0.50;0.50;;;;;;;;;;4932036;28;20103;-93
2022/04/19 15:13:20;;;;;;;0.88;0.85;;;;;;;;;;4962268;28;20050;-93
2022/04/19 15:15:46;;;;;;;1.15;0.93;;;;;;;;;;4948703;28;20039;-93
2022/04/19 15:18:15;;;;;;;;;;;;;;;;;;4945460;28;20055;-90
2022/04/19 15:20:41;;;;;;;0.28;0.28;;;;;;;;;;4953092;28;19914;-90
2022/04/19 15:23:07;;;;;;;0.25;0.22;;;;;;;;;;4963068;28;20644;-90
2022/04/19 15:25:34;;;;;;;0.43;0.43;;;;;;;;;;4949069;28;20535;-91
2022/04/19 15:28:02;;;;;;;0.00;0.00;;;;;;;;;;4964243;28;20031;-90
2022/04/19 15:30:29;;;;;;;0.00;0.00;;;;;;;;;;4957380;28;20058;-91
2022/04/19 15:32:55;;;;;;;3.10;0.90;;;;;;;;;;4940084;28;20073;-91
2022/04/19 15:35:26;;;;;;;0.00;0.00;;;;;;;;;;4945940;28;20524;-90
2022/04/19 15:37:53;;;;;;;0.70;0.70;;;;;;;;;;4949395;28;20035;-90
2022/04/19 15:40:19;;;;;;;0.30;0.30;;;;;;;;;;4963541;28;20512;-90